Time;durP1;ratioP1;P1;durP2;ratioP2;P2;SDS_P1;SDS_P2;PMS_P1;PMS_P2;Temp;Humidity;BMP_temperature;BMP_pressure;BME280_temperature;BME280_humidity;BME280_pressure;Samples;Min_cycle;Max_cycle;Signal;HPM_P1;HPM_P2
2022/05/03 00:00:50;;;;;;;8.53;7.23;;;;;;;;;;5074471;28;20468;-72
2022/05/03 00:03:20;;;;;;;8.07;6.97;;;;;;;;;;5074249;28;20478;-72
2022/05/03 00:05:52;;;;;;;7.90;7.10;;;;;;;;;;5074102;28;20455;-72
2022/05/03 00:08:21;;;;;;;9.53;7.80;;;;;;;;;;5073829;28;20451;-72
2022/05/03 00:10:54;;;;;;;11.00;9.80;;;;;;;;;;5073824;28;20513;-73
2022/05/03 00:13:24;;;;;;;10.77;8.57;;;;;;;;;;5073561;28;20482;-72
2022/05/03 00:15:55;;;;;;;10.33;8.27;;;;;;;;;;5073955;28;20450;-72
2022/05/03 00:18:23;;;;;;;9.30;7.90;;;;;;;;;;5073876;28;20489;-72
2022/05/03 00:20:50;;;;;;;12.80;9.80;;;;;;;;;;5073813;28;20456;-72
2022/05/03 00:23:18;;;;;;;11.73;10.10;;;;;;;;;;5073343;28;20463;-72
2022/05/03 00:25:45;;;;;;;13.70;10.13;;;;;;;;;;5073754;28;20446;-72
2022/05/03 00:28:13;;;;;;;9.77;8.77;;;;;;;;;;5073781;28;20968;-72
2022/05/03 00:30:40;;;;;;;11.13;8.77;;;;;;;;;;5073282;28;20471;-72
2022/05/03 00:33:09;;;;;;;12.33;9.80;;;;;;;;;;5073428;28;20933;-72
2022/05/03 00:35:36;;;;;;;20.00;10.00;;;;;;;;;;5073578;28;20462;-73
2022/05/03 00:38:04;;;;;;;12.13;9.70;;;;;;;;;;5073605;28;20463;-72
2022/05/03 00:40:32;;;;;;;10.77;9.40;;;;;;;;;;5073575;28;20482;-72
2022/05/03 00:43:03;;;;;;;14.20;10.60;;;;;;;;;;5073210;28;20466;-72
2022/05/03 00:45:37;;;;;;;13.70;9.90;;;;;;;;;;5073551;28;20454;-72
2022/05/03 00:48:13;;;;;;;14.70;10.77;;;;;;;;;;5073493;28;20815;-73
2022/05/03 00:50:41;;;;;;;14.33;10.80;;;;;;;;;;5073089;28;20476;-72
2022/05/03 00:53:10;;;;;;;14.37;11.70;;;;;;;;;;5073431;28;20816;-72
2022/05/03 00:55:55;;;;;;;13.90;10.70;;;;;;;;;;5073281;28;20483;-72
2022/05/03 00:58:29;;;;;;;14.67;11.33;;;;;;;;;;5072947;28;20447;-72
2022/05/03 01:00:58;;;;;;;14.20;10.93;;;;;;;;;;5073382;28;20443;-72
2022/05/03 01:03:27;;;;;;;17.03;11.07;;;;;;;;;;5073223;28;20955;-72
2022/05/03 01:06:01;;;;;;;12.80;10.40;;;;;;;;;;5073275;28;20917;-72
2022/05/03 01:08:30;;;;;;;15.57;11.30;;;;;;;;;;5073209;28;20436;-72
2022/05/03 01:11:09;;;;;;;14.83;10.90;;;;;;;;;;5072966;28;20479;-72
2022/05/03 01:13:43;;;;;;;13.80;10.80;;;;;;;;;;5072876;28;20439;-72
2022/05/03 01:16:16;;;;;;;15.50;11.73;;;;;;;;;;5073277;28;21032;-72
2022/05/03 01:18:47;;;;;;;14.70;10.80;;;;;;;;;;5072861;28;20486;-72
2022/05/03 01:21:19;;;;;;;14.07;11.60;;;;;;;;;;5073244;28;20935;-72
2022/05/03 01:23:51;;;;;;;16.23;12.73;;;;;;;;;;5072761;28;20462;-72
2022/05/03 01:26:33;;;;;;;25.37;17.77;;;;;;;;;;5075878;28;20490;-72
2022/05/03 01:29:11;;;;;;;27.20;20.33;;;;;;;;;;5077117;28;20471;-72
2022/05/03 01:31:38;;;;;;;24.67;17.37;;;;;;;;;;5076872;28;20439;-72
2022/05/03 01:34:06;;;;;;;22.47;14.90;;;;;;;;;;5076935;28;20487;-72
2022/05/03 01:36:40;;;;;;;22.57;15.10;;;;;;;;;;5077032;28;20939;-72
2022/05/03 01:39:16;;;;;;;17.80;13.10;;;;;;;;;;5076914;28;20478;-73
2022/05/03 01:41:44;;;;;;;22.63;17.10;;;;;;;;;;5077012;28;20435;-73
2022/05/03 01:44:16;;;;;;;24.70;17.10;;;;;;;;;;5076864;28;20929;-73
2022/05/03 01:46:43;;;;;;;16.97;11.60;;;;;;;;;;5076863;28;20435;-73
2022/05/03 01:52:23;;;;;;;15.17;11.70;;;;;;;;;;5076568;28;20874;-72
2022/05/03 01:55:02;;;;;;;17.93;11.10;;;;;;;;;;5071646;28;21085;-72
2022/05/03 01:57:32;;;;;;;20.20;13.37;;;;;;;;;;5076665;28;20796;-72
2022/05/03 02:00:06;;;;;;;17.03;11.73;;;;;;;;;;5076275;28;20885;-70
2022/05/03 02:02:40;;;;;;;16.13;12.43;;;;;;;;;;5076207;28;20439;-70
2022/05/03 02:05:08;;;;;;;16.97;12.10;;;;;;;;;;5076456;28;20791;-70
2022/05/03 02:07:50;;;;;;;16.80;12.23;;;;;;;;;;5076329;28;20456;-70
2022/05/03 02:10:20;;;;;;;18.30;12.30;;;;;;;;;;5073902;28;20483;-72
2022/05/03 02:12:49;;;;;;;14.53;11.27;;;;;;;;;;5075976;28;20452;-73
2022/05/03 02:15:23;;;;;;;15.87;12.60;;;;;;;;;;5076279;28;20475;-72
2022/05/03 02:17:54;;;;;;;18.03;12.20;;;;;;;;;;5076234;28;20436;-72
2022/05/03 02:20:29;;;;;;;17.97;11.87;;;;;;;;;;5076047;28;20844;-72
2022/05/03 02:23:06;;;;;;;15.70;10.87;;;;;;;;;;5075984;28;20810;-72
2022/05/03 02:25:43;;;;;;;15.87;10.23;;;;;;;;;;5076107;28;20470;-72
2022/05/03 02:28:15;;;;;;;14.33;12.10;;;;;;;;;;5075932;28;20435;-72
2022/05/03 02:30:45;;;;;;;14.30;12.00;;;;;;;;;;5075622;28;20464;-72
2022/05/03 02:33:19;;;;;;;16.03;12.60;;;;;;;;;;5076047;28;20447;-72
2022/05/03 02:35:49;;;;;;;17.23;12.30;;;;;;;;;;5075672;28;20474;-72
2022/05/03 02:38:20;;;;;;;18.70;13.60;;;;;;;;;;5075560;28;20448;-72
2022/05/03 02:40:48;;;;;;;19.70;11.97;;;;;;;;;;5075721;28;20502;-72
2022/05/03 02:43:16;;;;;;;22.33;14.40;;;;;;;;;;5075456;28;20459;-72
2022/05/03 02:45:48;;;;;;;19.83;15.20;;;;;;;;;;5075671;28;20479;-72
2022/05/03 02:48:18;;;;;;;23.70;14.57;;;;;;;;;;5075484;28;20448;-72
2022/05/03 02:50:47;;;;;;;22.40;14.77;;;;;;;;;;5075683;28;20513;-72
2022/05/03 02:53:19;;;;;;;23.13;15.60;;;;;;;;;;5075601;28;20455;-72
2022/05/03 02:55:50;;;;;;;25.57;15.80;;;;;;;;;;5075616;28;20472;-72
2022/05/03 02:58:25;;;;;;;19.60;14.57;;;;;;;;;;5075659;28;20436;-73
2022/05/03 03:03:49;;;;;;;21.83;14.67;;;;;;;;;;5075307;28;20411;-71
2022/05/03 03:06:21;;;;;;;23.80;16.13;;;;;;;;;;5075364;28;20505;-71
2022/05/03 03:08:50;;;;;;;26.63;17.40;;;;;;;;;;5075276;28;20471;-71
2022/05/03 03:11:22;;;;;;;22.80;16.90;;;;;;;;;;5075209;28;20502;-71
2022/05/03 03:13:56;;;;;;;20.87;16.70;;;;;;;;;;5075143;28;20805;-71
2022/05/03 03:16:29;;;;;;;28.63;17.27;;;;;;;;;;5075063;28;20435;-71
2022/05/03 03:18:58;;;;;;;22.93;16.03;;;;;;;;;;5075013;28;20984;-71
2022/05/03 03:21:26;;;;;;;21.40;16.50;;;;;;;;;;5075078;28;20956;-72
2022/05/03 03:23:54;;;;;;;21.40;16.43;;;;;;;;;;5074695;28;20459;-72
2022/05/03 03:26:21;;;;;;;25.43;15.70;;;;;;;;;;5074924;28;20562;-72
2022/05/03 03:28:49;;;;;;;22.37;16.47;;;;;;;;;;5074758;28;20479;-72
2022/05/03 03:31:17;;;;;;;23.97;16.50;;;;;;;;;;5074909;28;20456;-73
2022/05/03 03:33:45;;;;;;;22.70;16.00;;;;;;;;;;5074869;28;20451;-73
2022/05/03 03:36:14;;;;;;;26.00;16.70;;;;;;;;;;5074652;28;20846;-73
2022/05/03 03:38:45;;;;;;;22.53;17.13;;;;;;;;;;5074684;28;20452;-72
2022/05/03 03:41:12;;;;;;;22.90;16.20;;;;;;;;;;5074327;28;20440;-72
2022/05/03 03:43:40;;;;;;;24.97;18.30;;;;;;;;;;5074267;28;20455;-72
2022/05/03 03:46:07;;;;;;;21.00;16.53;;;;;;;;;;5074236;28;20458;-72
2022/05/03 03:48:34;;;;;;;20.23;15.23;;;;;;;;;;5073729;28;20478;-73
2022/05/03 03:51:04;;;;;;;18.73;14.97;;;;;;;;;;5074466;28;20457;-73
2022/05/03 03:53:31;;;;;;;20.63;15.30;;;;;;;;;;5074361;28;20451;-73
2022/05/03 03:55:59;;;;;;;19.60;14.53;;;;;;;;;;5074314;28;20487;-73
2022/05/03 03:58:26;;;;;;;20.20;14.10;;;;;;;;;;5073917;28;20456;-73
2022/05/03 04:00:53;;;;;;;22.67;17.00;;;;;;;;;;5074252;28;20860;-73
2022/05/03 04:03:20;;;;;;;27.20;16.03;;;;;;;;;;5074239;28;20455;-73
2022/05/03 04:05:47;;;;;;;22.67;16.30;;;;;;;;;;5074152;28;20459;-73
2022/05/03 04:08:16;;;;;;;22.83;17.10;;;;;;;;;;5074005;28;20952;-73
2022/05/03 04:10:43;;;;;;;21.37;15.90;;;;;;;;;;5073981;28;20980;-73
2022/05/03 04:13:13;;;;;;;20.93;15.10;;;;;;;;;;5074018;28;20454;-73
2022/05/03 04:15:40;;;;;;;18.20;13.70;;;;;;;;;;5074056;28;20483;-72
2022/05/03 04:18:08;;;;;;;20.63;14.27;;;;;;;;;;5073858;28;20455;-73
2022/05/03 04:20:36;;;;;;;19.73;14.23;;;;;;;;;;5073819;28;20475;-72
2022/05/03 04:23:03;;;;;;;20.60;14.73;;;;;;;;;;5073628;28;20468;-72
2022/05/03 04:25:32;;;;;;;20.40;15.67;;;;;;;;;;5073849;28;20496;-72
2022/05/03 04:27:59;;;;;;;18.87;13.27;;;;;;;;;;5073294;28;20462;-72
2022/05/03 04:30:26;;;;;;;17.53;14.43;;;;;;;;;;5073660;28;20827;-72
2022/05/03 04:32:54;;;;;;;15.77;14.07;;;;;;;;;;5072631;28;20459;-73
2022/05/03 04:35:21;;;;;;;15.37;12.07;;;;;;;;;;5073106;28;20475;-72
2022/05/03 04:37:48;;;;;;;13.80;10.23;;;;;;;;;;5073541;28;20940;-72
2022/05/03 04:40:15;;;;;;;12.80;9.90;;;;;;;;;;5073364;28;20813;-72
2022/05/03 04:42:43;;;;;;;12.57;10.57;;;;;;;;;;5073303;28;20460;-72
2022/05/03 04:45:11;;;;;;;15.13;12.77;;;;;;;;;;5073379;28;20452;-73
2022/05/03 04:47:38;;;;;;;13.13;11.30;;;;;;;;;;5073369;28;20968;-73
2022/05/03 04:50:06;;;;;;;12.13;10.87;;;;;;;;;;5070738;28;20494;-72
2022/05/03 04:52:33;;;;;;;11.47;9.43;;;;;;;;;;5071877;28;20506;-72
2022/05/03 04:55:00;;;;;;;10.37;9.27;;;;;;;;;;5071688;28;20494;-73
2022/05/03 04:57:27;;;;;;;10.53;9.43;;;;;;;;;;5072087;28;20900;-73
2022/05/03 04:59:56;;;;;;;9.20;8.40;;;;;;;;;;5071664;28;20478;-72
2022/05/03 05:02:23;;;;;;;11.23;8.03;;;;;;;;;;5071573;28;20463;-72
2022/05/03 05:04:50;;;;;;;10.43;9.33;;;;;;;;;;5071652;28;20452;-72
2022/05/03 05:07:17;;;;;;;10.20;9.20;;;;;;;;;;5071563;28;20448;-72
2022/05/03 05:12:25;;;;;;;11.20;10.10;;;;;;;;;;5071246;28;20459;-72
2022/05/03 05:14:52;;;;;;;13.10;10.73;;;;;;;;;;5071623;28;20451;-72
2022/05/03 05:17:21;;;;;;;10.87;9.77;;;;;;;;;;5071667;28;20454;-72
2022/05/03 05:19:48;;;;;;;14.30;11.23;;;;;;;;;;5071273;28;20498;-72
2022/05/03 05:22:15;;;;;;;11.90;10.40;;;;;;;;;;5071745;28;20813;-72
2022/05/03 05:24:42;;;;;;;14.00;11.77;;;;;;;;;;5071426;28;20463;-72
2022/05/03 05:27:09;;;;;;;14.43;11.83;;;;;;;;;;5071643;28;20460;-72
2022/05/03 05:29:36;;;;;;;13.47;11.10;;;;;;;;;;5071624;28;20467;-72
2022/05/03 05:32:04;;;;;;;14.60;11.70;;;;;;;;;;5071437;28;20792;-72
2022/05/03 05:34:32;;;;;;;11.20;10.00;;;;;;;;;;5071390;28;20436;-72
2022/05/03 05:36:59;;;;;;;15.33;11.00;;;;;;;;;;5071752;28;21023;-72
2022/05/03 05:39:26;;;;;;;9.90;7.93;;;;;;;;;;5071621;28;21046;-72
2022/05/03 05:41:55;;;;;;;8.67;7.90;;;;;;;;;;5071985;28;20826;-72
2022/05/03 05:44:22;;;;;;;7.80;7.00;;;;;;;;;;5071515;28;20455;-72
2022/05/03 05:46:49;;;;;;;12.10;7.87;;;;;;;;;;5071774;28;20921;-73
2022/05/03 05:49:16;;;;;;;8.20;7.40;;;;;;;;;;5071714;28;20490;-73
2022/05/03 05:51:45;;;;;;;7.90;7.10;;;;;;;;;;5071167;28;20466;-73
2022/05/03 05:54:11;;;;;;;7.43;6.70;;;;;;;;;;5071630;28;20468;-73
2022/05/03 05:56:40;;;;;;;7.97;7.27;;;;;;;;;;5071274;28;20724;-73
2022/05/03 05:59:07;;;;;;;13.10;6.97;;;;;;;;;;5071564;28;20475;-73
2022/05/03 06:01:37;;;;;;;7.50;6.77;;;;;;;;;;5071644;28;20452;-73
2022/05/03 06:04:05;;;;;;;9.47;6.63;;;;;;;;;;5071451;28;20497;-73
2022/05/03 06:06:32;;;;;;;6.80;6.20;;;;;;;;;;5071511;28;20451;-74
2022/05/03 06:09:01;;;;;;;7.63;6.93;;;;;;;;;;5071145;28;20491;-73
2022/05/03 06:11:29;;;;;;;7.13;6.47;;;;;;;;;;5073033;28;20937;-73
2022/05/03 06:13:56;;;;;;;6.80;6.20;;;;;;;;;;5075346;28;20551;-73
2022/05/03 06:16:23;;;;;;;7.33;6.50;;;;;;;;;;5074723;28;20487;-73
2022/05/03 06:18:50;;;;;;;7.10;6.50;;;;;;;;;;5074780;28;20475;-74
2022/05/03 06:21:17;;;;;;;5.90;5.50;;;;;;;;;;5075052;28;20937;-74
2022/05/03 06:23:44;;;;;;;7.17;6.00;;;;;;;;;;5074699;28;20465;-74
2022/05/03 06:26:13;;;;;;;7.70;5.80;;;;;;;;;;5074737;28;20538;-74
2022/05/03 06:28:42;;;;;;;6.73;6.13;;;;;;;;;;5074896;28;20448;-73
2022/05/03 06:31:09;;;;;;;6.60;6.07;;;;;;;;;;5074824;28;20867;-74
2022/05/03 06:33:38;;;;;;;6.63;6.03;;;;;;;;;;5074980;28;20452;-73
2022/05/03 06:36:05;;;;;;;6.30;5.47;;;;;;;;;;5074456;28;20488;-73
2022/05/03 06:38:32;;;;;;;6.40;5.87;;;;;;;;;;5074600;28;20448;-74
2022/05/03 06:41:00;;;;;;;6.93;6.43;;;;;;;;;;5074713;28;20455;-73
2022/05/03 06:43:29;;;;;;;7.40;6.27;;;;;;;;;;5074780;28;20831;-74
2022/05/03 06:45:56;;;;;;;6.40;5.90;;;;;;;;;;5074401;28;20452;-73
2022/05/03 06:48:23;;;;;;;6.77;6.17;;;;;;;;;;5074298;28;20472;-73
2022/05/03 06:50:50;;;;;;;7.43;6.83;;;;;;;;;;5074813;28;20845;-73
2022/05/03 06:53:17;;;;;;;11.00;6.60;;;;;;;;;;5074443;28;20448;-73
2022/05/03 06:55:44;;;;;;;6.60;6.00;;;;;;;;;;5074055;28;20479;-73
2022/05/03 06:58:11;;;;;;;7.57;6.87;;;;;;;;;;5074096;28;20459;-73
2022/05/03 07:00:40;;;;;;;6.70;6.10;;;;;;;;;;5074033;28;20479;-73
2022/05/03 07:03:07;;;;;;;6.27;5.77;;;;;;;;;;5074288;28;20459;-73
2022/05/03 07:05:34;;;;;;;7.67;5.90;;;;;;;;;;5074279;28;20447;-73
2022/05/03 07:08:01;;;;;;;5.90;5.40;;;;;;;;;;5073778;28;20455;-73
2022/05/03 07:10:28;;;;;;;5.40;4.90;;;;;;;;;;5074074;28;20984;-73
2022/05/03 07:12:56;;;;;;;5.90;5.47;;;;;;;;;;5074102;28;20448;-73
2022/05/03 07:15:24;;;;;;;12.40;5.57;;;;;;;;;;5074076;28;20458;-73
2022/05/03 07:23:28;;;;;;;5.80;5.30;;;;;;;;;;5072450;28;20492;-73
2022/05/03 07:25:55;;;;;;;5.73;5.23;;;;;;;;;;5073531;28;20444;-72
2022/05/03 07:28:22;;;;;;;5.43;5.03;;;;;;;;;;5073707;28;20817;-72
2022/05/03 07:30:49;;;;;;;6.57;5.97;;;;;;;;;;5074002;28;20467;-72
2022/05/03 07:33:18;;;;;;;6.53;5.73;;;;;;;;;;5074948;28;20501;-72
2022/05/03 07:35:45;;;;;;;6.70;6.00;;;;;;;;;;5074267;28;20583;-72
2022/05/03 07:38:12;;;;;;;6.40;5.80;;;;;;;;;;5074872;28;20817;-72
2022/05/03 07:40:39;;;;;;;6.67;5.97;;;;;;;;;;5074696;28;20482;-73
2022/05/03 07:43:06;;;;;;;5.87;5.37;;;;;;;;;;5074754;28;20455;-73
2022/05/03 07:45:33;;;;;;;6.07;5.57;;;;;;;;;;5074761;28;20541;-73
2022/05/03 07:48:00;;;;;;;7.87;6.33;;;;;;;;;;5074675;28;20949;-73
2022/05/03 07:50:29;;;;;;;6.40;5.90;;;;;;;;;;5074534;28;20848;-73
2022/05/03 07:52:56;;;;;;;7.00;6.03;;;;;;;;;;5074529;28;20814;-73
2022/05/03 07:55:23;;;;;;;8.50;6.57;;;;;;;;;;5074496;28;20452;-73
2022/05/03 07:57:50;;;;;;;6.90;6.20;;;;;;;;;;5074422;28;20992;-73
2022/05/03 08:00:18;;;;;;;6.40;5.80;;;;;;;;;;5074355;28;20480;-73
2022/05/03 08:02:45;;;;;;;6.00;5.47;;;;;;;;;;5074397;28;20460;-73
2022/05/03 08:05:12;;;;;;;7.10;6.23;;;;;;;;;;5074341;28;20825;-73
2022/05/03 08:07:40;;;;;;;7.13;6.20;;;;;;;;;;5074267;28;20451;-73
2022/05/03 08:10:08;;;;;;;8.80;6.50;;;;;;;;;;5074166;28;20474;-73
2022/05/03 08:12:35;;;;;;;15.33;6.73;;;;;;;;;;5074189;28;20451;-73
2022/05/03 08:15:03;;;;;;;6.80;6.20;;;;;;;;;;5073858;28;20455;-74
2022/05/03 08:17:30;;;;;;;7.17;6.50;;;;;;;;;;5074073;28;21014;-74
2022/05/03 08:19:58;;;;;;;7.27;6.63;;;;;;;;;;5073845;28;20483;-73
2022/05/03 08:22:25;;;;;;;6.10;5.60;;;;;;;;;;5074034;28;20474;-73
2022/05/03 08:24:54;;;;;;;7.53;6.83;;;;;;;;;;5073615;28;20459;-73
2022/05/03 08:27:21;;;;;;;16.47;6.17;;;;;;;;;;5073965;28;20451;-73
2022/05/03 08:29:48;;;;;;;7.40;6.70;;;;;;;;;;5073831;28;20498;-73
2022/05/03 08:32:16;;;;;;;6.03;5.60;;;;;;;;;;5073823;28;20960;-73
2022/05/03 08:34:43;;;;;;;6.67;6.07;;;;;;;;;;5073611;28;20821;-73
2022/05/03 08:42:41;;;;;;;6.90;6.30;;;;;;;;;;5073480;28;20911;-73
2022/05/03 08:45:09;;;;;;;6.40;5.80;;;;;;;;;;5073370;28;20463;-73
2022/05/03 08:47:38;;;;;;;9.67;5.90;;;;;;;;;;5073598;28;20894;-73
2022/05/03 08:50:07;;;;;;;6.07;5.47;;;;;;;;;;5073331;28;20467;-72
2022/05/03 08:52:38;;;;;;;7.33;6.63;;;;;;;;;;5073570;28;20831;-72
2022/05/03 08:55:07;;;;;;;6.20;5.60;;;;;;;;;;5073623;28;20939;-72
2022/05/03 08:57:34;;;;;;;7.27;6.60;;;;;;;;;;5073463;28;20495;-72
2022/05/03 09:00:04;;;;;;;6.50;5.90;;;;;;;;;;5073147;28;20483;-73
2022/05/03 09:02:31;;;;;;;7.30;6.63;;;;;;;;;;5073515;28;20437;-72
2022/05/03 09:04:59;;;;;;;6.77;5.93;;;;;;;;;;5073128;28;20455;-72
2022/05/03 09:07:26;;;;;;;9.27;5.80;;;;;;;;;;5073477;28;20823;-72
2022/05/03 09:09:54;;;;;;;7.70;6.90;;;;;;;;;;5073331;28;20478;-73
2022/05/03 09:12:27;;;;;;;7.73;6.43;;;;;;;;;;5073015;28;20451;-72
2022/05/03 09:14:54;;;;;;;6.40;5.80;;;;;;;;;;5073565;28;20501;-73
2022/05/03 09:17:37;;;;;;;7.00;6.30;;;;;;;;;;5072982;28;20491;-73
2022/05/03 09:23:46;;;;;;;11.40;6.43;;;;;;;;;;5073186;28;20483;-73
2022/05/03 09:25:48;;;;;;;6.57;6.07;;;;;;;;;;5072917;28;20573;-72
2022/05/03 09:28:17;;;;;;;6.80;6.20;;;;;;;;;;5072925;28;20462;-72
2022/05/03 09:30:50;;;;;;;6.80;6.10;;;;;;;;;;5073127;28;20479;-72
2022/05/03 09:33:18;;;;;;;8.17;6.60;;;;;;;;;;5071514;28;20455;-71
2022/05/03 09:35:45;;;;;;;6.00;5.53;;;;;;;;;;5071688;28;20479;-71
2022/05/03 09:38:12;;;;;;;6.20;5.67;;;;;;;;;;5071807;28;20484;-71
2022/05/03 09:40:41;;;;;;;5.90;5.40;;;;;;;;;;5071480;28;20471;-71
2022/05/03 09:43:08;;;;;;;6.07;5.57;;;;;;;;;;5071277;28;20546;-71
2022/05/03 09:45:37;;;;;;;6.73;6.10;;;;;;;;;;5071658;28;20474;-71
2022/05/03 09:48:04;;;;;;;6.80;6.23;;;;;;;;;;5075480;28;20491;-71
2022/05/03 09:50:39;;;;;;;5.97;5.47;;;;;;;;;;5075483;28;20474;-72
2022/05/03 09:53:10;;;;;;;6.00;5.50;;;;;;;;;;5075312;28;20454;-72
2022/05/03 09:55:37;;;;;;;5.97;5.40;;;;;;;;;;5075618;28;20940;-72
2022/05/03 09:58:05;;;;;;;10.53;5.73;;;;;;;;;;5075329;28;20851;-72
2022/05/03 10:00:33;;;;;;;4.90;4.50;;;;;;;;;;5075336;28;20984;-71
2022/05/03 10:03:02;;;;;;;5.37;4.77;;;;;;;;;;5075417;28;20483;-71
2022/05/03 10:05:30;;;;;;;5.63;5.00;;;;;;;;;;5075406;28;20447;-72
2022/05/03 10:07:57;;;;;;;6.80;4.97;;;;;;;;;;5075020;28;20440;-71
2022/05/03 10:10:24;;;;;;;5.30;4.90;;;;;;;;;;5075208;28;20475;-71
2022/05/03 10:12:53;;;;;;;5.30;4.90;;;;;;;;;;5074901;28;20452;-71
2022/05/03 10:20:56;;;;;;;5.03;4.63;;;;;;;;;;5074882;28;20411;-71
2022/05/03 10:23:24;;;;;;;5.00;4.60;;;;;;;;;;5074409;28;20470;-71
2022/05/03 10:25:52;;;;;;;4.27;3.87;;;;;;;;;;5074663;28;20451;-71
2022/05/03 10:28:19;;;;;;;5.70;4.53;;;;;;;;;;5074940;28;20462;-71
2022/05/03 10:31:05;;;;;;;4.20;3.87;;;;;;;;;;5075823;28;20520;-71
2022/05/03 10:33:39;;;;;;;4.03;3.70;;;;;;;;;;5076116;28;20940;-72
2022/05/03 10:36:21;;;;;;;6.77;3.90;;;;;;;;;;5076095;28;20962;-72
2022/05/03 10:38:49;;;;;;;4.10;3.80;;;;;;;;;;5075598;28;20486;-72
2022/05/03 10:41:24;;;;;;;4.90;3.80;;;;;;;;;;5075968;28;20447;-72
2022/05/03 10:43:51;;;;;;;4.23;3.90;;;;;;;;;;5075153;28;20439;-71
2022/05/03 10:46:21;;;;;;;4.20;3.80;;;;;;;;;;5073606;28;20448;-71
2022/05/03 10:49:03;;;;;;;4.17;3.87;;;;;;;;;;5074501;28;20471;-71
2022/05/03 10:51:32;;;;;;;5.70;4.57;;;;;;;;;;5074935;28;20787;-71
2022/05/03 10:53:59;;;;;;;4.50;4.10;;;;;;;;;;5074482;28;20949;-71
2022/05/03 10:56:27;;;;;;;5.80;4.03;;;;;;;;;;5074334;28;20440;-71
2022/05/03 10:59:14;;;;;;;4.47;4.07;;;;;;;;;;5074129;28;20471;-71
2022/05/03 11:02:00;;;;;;;3.73;3.10;;;;;;;;;;5074451;28;20458;-71
2022/05/03 11:04:27;;;;;;;4.30;3.90;;;;;;;;;;5074336;28;20547;-71
2022/05/03 11:06:57;;;;;;;5.63;3.70;;;;;;;;;;5073854;28;20452;-71
2022/05/03 11:09:28;;;;;;;4.33;3.93;;;;;;;;;;5074283;28;20471;-71
2022/05/03 11:12:12;;;;;;;3.70;3.40;;;;;;;;;;5073892;28;20458;-71
2022/05/03 11:14:47;;;;;;;3.80;3.50;;;;;;;;;;5074623;28;20444;-71
2022/05/03 11:17:14;;;;;;;3.53;3.20;;;;;;;;;;5073930;28;20917;-71
2022/05/03 11:19:49;;;;;;;4.87;4.23;;;;;;;;;;5073981;28;20463;-71
2022/05/03 11:22:19;;;;;;;3.77;3.37;;;;;;;;;;5073920;28;20483;-72
2022/05/03 11:24:46;;;;;;;3.73;3.33;;;;;;;;;;5073622;28;20751;-72
2022/05/03 11:27:14;;;;;;;3.97;3.67;;;;;;;;;;5073721;28;20486;-71
2022/05/03 11:29:42;;;;;;;4.17;3.77;;;;;;;;;;5074200;28;20558;-72
2022/05/03 11:32:10;;;;;;;3.83;3.50;;;;;;;;;;5075047;28;20935;-72
2022/05/03 11:34:39;;;;;;;4.47;4.03;;;;;;;;;;5074740;28;20452;-72
2022/05/03 11:37:07;;;;;;;5.63;4.17;;;;;;;;;;5074845;28;20487;-72
2022/05/03 11:39:36;;;;;;;5.43;3.40;;;;;;;;;;5074788;28;20994;-72
2022/05/03 11:42:04;;;;;;;3.77;3.13;;;;;;;;;;5074859;28;20447;-73
2022/05/03 11:44:31;;;;;;;4.87;4.10;;;;;;;;;;5074726;28;20456;-72
2022/05/03 11:47:01;;;;;;;5.43;3.03;;;;;;;;;;5074474;28;20542;-72
2022/05/03 11:49:28;;;;;;;5.00;3.57;;;;;;;;;;5074683;28;20474;-72
2022/05/03 11:57:28;;;;;;;8.47;3.80;;;;;;;;;;5074174;28;20958;-71
2022/05/03 11:59:56;;;;;;;4.00;3.60;;;;;;;;;;5074358;28;20476;-71
2022/05/03 12:02:24;;;;;;;4.00;2.80;;;;;;;;;;5074078;28;20454;-71
2022/05/03 12:05:02;;;;;;;3.53;2.60;;;;;;;;;;5074345;28;20964;-71
2022/05/03 12:07:29;;;;;;;5.33;3.50;;;;;;;;;;5073882;28;20490;-71
2022/05/03 12:09:57;;;;;;;3.67;3.30;;;;;;;;;;5073691;28;20482;-71
2022/05/03 12:15:14;;;;;;;8.10;3.47;;;;;;;;;;5073944;28;20791;-71
2022/05/03 12:17:55;;;;;;;5.80;3.57;;;;;;;;;;5073712;28;20483;-71
2022/05/03 12:20:22;;;;;;;3.77;3.00;;;;;;;;;;5073997;28;20831;-71
2022/05/03 12:23:04;;;;;;;3.87;3.27;;;;;;;;;;5073849;28;20546;-71
2022/05/03 12:25:33;;;;;;;3.67;3.10;;;;;;;;;;5073437;28;20452;-70
2022/05/03 12:28:04;;;;;;;6.97;3.47;;;;;;;;;;5073921;28;20924;-71
2022/05/03 12:30:31;;;;;;;7.53;3.27;;;;;;;;;;5073785;28;20479;-71
2022/05/03 12:33:01;;;;;;;4.63;3.40;;;;;;;;;;5073802;28;20443;-71
2022/05/03 12:35:31;;;;;;;4.30;3.00;;;;;;;;;;5073763;28;20503;-71
2022/05/03 12:37:59;;;;;;;3.30;2.83;;;;;;;;;;5073652;28;20890;-71
2022/05/03 12:40:26;;;;;;;5.90;3.10;;;;;;;;;;5073658;28;20471;-71
2022/05/03 12:42:55;;;;;;;3.50;3.20;;;;;;;;;;5073694;28;20452;-71
2022/05/03 12:45:31;;;;;;;3.90;2.90;;;;;;;;;;5073319;28;20447;-71
2022/05/03 12:47:58;;;;;;;3.37;3.07;;;;;;;;;;5073642;28;20786;-71
2022/05/03 12:50:25;;;;;;;6.40;3.40;;;;;;;;;;5073618;28;20468;-71
2022/05/03 12:52:52;;;;;;;3.80;2.80;;;;;;;;;;5073581;28;20458;-72
2022/05/03 12:55:19;;;;;;;3.10;2.80;;;;;;;;;;5073112;28;20452;-72
2022/05/03 13:00:36;;;;;;;3.27;2.20;;;;;;;;;;5073477;28;20443;-71
2022/05/03 13:03:03;;;;;;;3.60;2.90;;;;;;;;;;5073471;28;20530;-71
2022/05/03 13:05:30;;;;;;;2.40;2.20;;;;;;;;;;5073493;28;20542;-71
2022/05/03 13:07:57;;;;;;;2.90;2.33;;;;;;;;;;5073452;28;20448;-71
2022/05/03 13:10:24;;;;;;;4.40;3.40;;;;;;;;;;5073069;28;20554;-71
2022/05/03 13:12:51;;;;;;;3.93;2.73;;;;;;;;;;5073395;28;20448;-71
2022/05/03 13:15:19;;;;;;;3.47;2.93;;;;;;;;;;5073335;28;20847;-71
2022/05/03 13:17:47;;;;;;;3.90;2.70;;;;;;;;;;5073286;28;20483;-71
2022/05/03 13:20:14;;;;;;;5.40;2.40;;;;;;;;;;5072952;28;20468;-71
2022/05/03 13:22:41;;;;;;;3.37;2.60;;;;;;;;;;5076653;28;20959;-72
2022/05/03 13:25:09;;;;;;;6.30;2.63;;;;;;;;;;5077509;28;20897;-71
2022/05/03 13:27:36;;;;;;;3.93;2.60;;;;;;;;;;5077348;28;20459;-71
2022/05/03 13:30:03;;;;;;;4.10;3.20;;;;;;;;;;5077231;28;20475;-71
2022/05/03 13:32:30;;;;;;;3.20;2.90;;;;;;;;;;5077025;28;20458;-71
2022/05/03 13:34:59;;;;;;;3.30;3.00;;;;;;;;;;5077181;28;20786;-71
2022/05/03 13:40:29;;;;;;;3.90;2.90;;;;;;;;;;5076812;28;20501;-71
2022/05/03 13:42:57;;;;;;;3.17;2.87;;;;;;;;;;5077172;28;20436;-71
2022/05/03 13:45:25;;;;;;;3.80;2.97;;;;;;;;;;5076998;28;20882;-71
2022/05/03 13:47:52;;;;;;;4.70;3.17;;;;;;;;;;5076820;28;20483;-71
2022/05/03 13:50:20;;;;;;;2.60;2.40;;;;;;;;;;5076864;28;20483;-71
2022/05/03 13:52:47;;;;;;;3.37;2.57;;;;;;;;;;5076863;28;20949;-71
2022/05/03 13:55:15;;;;;;;3.90;2.47;;;;;;;;;;5076847;28;20475;-71
2022/05/03 13:57:43;;;;;;;3.10;2.60;;;;;;;;;;5076445;28;20483;-71
2022/05/03 14:00:11;;;;;;;3.30;2.50;;;;;;;;;;5076636;28;20467;-71
2022/05/03 14:02:38;;;;;;;3.20;2.90;;;;;;;;;;5076391;28;20455;-71
2022/05/03 14:05:06;;;;;;;5.20;3.30;;;;;;;;;;5076401;28;20451;-71
2022/05/03 14:07:35;;;;;;;5.73;4.40;;;;;;;;;;5076590;28;20455;-71
2022/05/03 14:10:02;;;;;;;3.40;3.10;;;;;;;;;;5076178;28;20471;-71
2022/05/03 14:12:30;;;;;;;5.00;2.60;;;;;;;;;;5076221;28;20447;-71
2022/05/03 14:14:58;;;;;;;4.53;3.50;;;;;;;;;;5076446;28;20817;-71
2022/05/03 14:17:25;;;;;;;3.37;2.83;;;;;;;;;;5076375;28;20555;-71
2022/05/03 14:19:52;;;;;;;2.70;2.30;;;;;;;;;;5076007;28;20476;-71
2022/05/03 14:22:19;;;;;;;3.30;2.60;;;;;;;;;;5076034;28;20447;-71
2022/05/03 14:24:48;;;;;;;3.97;2.57;;;;;;;;;;5075907;28;20513;-71
2022/05/03 14:27:15;;;;;;;3.20;2.50;;;;;;;;;;5076267;28;20474;-71
2022/05/03 14:29:42;;;;;;;6.03;3.10;;;;;;;;;;5076135;28;20474;-71
2022/05/03 14:32:10;;;;;;;3.33;2.47;;;;;;;;;;5075376;28;20448;-71
2022/05/03 14:34:37;;;;;;;5.63;2.70;;;;;;;;;;5075822;28;20452;-71
2022/05/03 14:37:05;;;;;;;2.97;2.67;;;;;;;;;;5076083;28;20534;-71
2022/05/03 14:39:32;;;;;;;3.30;2.40;;;;;;;;;;5075828;28;20491;-71
2022/05/03 14:42:03;;;;;;;3.57;2.63;;;;;;;;;;5076006;28;20455;-71
2022/05/03 14:44:31;;;;;;;2.10;1.90;;;;;;;;;;5075904;28;20851;-71
2022/05/03 14:46:58;;;;;;;3.80;2.73;;;;;;;;;;5075849;28;20894;-71
2022/05/03 14:49:25;;;;;;;3.10;2.07;;;;;;;;;;5075840;28;20836;-71
2022/05/03 14:51:53;;;;;;;4.47;2.93;;;;;;;;;;5075832;28;20454;-71
2022/05/03 14:54:21;;;;;;;2.67;2.10;;;;;;;;;;5075399;28;20455;-71
2022/05/03 15:05:06;;;;;;;3.63;2.37;;;;;;;;;;5075401;28;20404;-71
2022/05/03 15:07:33;;;;;;;2.40;2.20;;;;;;;;;;5075589;28;20452;-71
2022/05/03 15:10:00;;;;;;;3.80;2.40;;;;;;;;;;5075501;28;20471;-71
2022/05/03 15:12:27;;;;;;;7.60;2.50;;;;;;;;;;5075133;28;20448;-71
2022/05/03 15:14:56;;;;;;;3.27;2.20;;;;;;;;;;5075387;28;20937;-71
2022/05/03 15:17:23;;;;;;;2.93;2.40;;;;;;;;;;5075357;28;20447;-71
2022/05/03 15:19:50;;;;;;;4.27;2.73;;;;;;;;;;5075150;28;20491;-71
2022/05/03 15:22:17;;;;;;;2.80;2.23;;;;;;;;;;5075179;28;20451;-71
2022/05/03 15:24:43;;;;;;;7.50;2.30;;;;;;;;;;5074875;28;20459;-71
2022/05/03 15:27:11;;;;;;;4.10;1.93;;;;;;;;;;5075164;28;20807;-71
2022/05/03 15:29:39;;;;;;;3.73;2.70;;;;;;;;;;5074736;28;20546;-71
2022/05/03 15:32:25;;;;;;;4.60;1.80;;;;;;;;;;5075015;28;20526;-71
2022/05/03 15:34:53;;;;;;;3.03;2.63;;;;;;;;;;5075180;28;20933;-71